Wilson Lahn — 8PUO — position and weather

sailwx.info

Track history (hours):
 
Tides and Currents Weather Stations Pressure Air Temp Water Temp Dewpoint Dewpoint Depression Visibility Wind Speed Wind Dir Waves Ship Positions

Wilson Lahn

Last reported at 2014-Sep-01 12:10 UTC. Time now 2014-Sep-02 21:24 UTC.
Position N 64°34' E 009°42'.

Length 83 m; draft 3.7 m.

Type: Cargo ship. MMSI: 314259000.

Date/timePositionNaut miles runAvg speedWind from/ knotsBaromVisibWave heightAir tempDewpointWater temp
2014-Sep-01 12:10N 64°34' E 009°42'911.5
2014-Sep-01 11:23N 64°28' E 009°28'  
2014-Aug-29 23:21N 59°05' E 005°00'1012.6
2014-Aug-29 22:33N 58°56' E 005°09'3812.8
2014-Aug-29 19:33N 58°23' E 005°48'1312.8
2014-Aug-29 18:33N 58°15' E 006°07'1312.5
2014-Aug-29 17:33N 58°06' E 006°24'12511.3
2014-Aug-29 06:31N 57°49' E 010°18'1111.6
2014-Aug-29 05:33N 57°48' E 010°38'1110.3
2014-Aug-29 04:29N 57°43' E 010°56'1111.5
2014-Aug-29 03:33N 57°35' E 011°11'1211.6
2014-Aug-29 02:33N 57°27' E 011°26'1211.8
2014-Aug-29 01:34N 57°16' E 011°34'1311.8
2014-Aug-29 00:30N 57°04' E 011°41'1111.3
2014-Aug-28 23:33N 56°54' E 011°48'1110.9
2014-Aug-28 22:34N 56°44' E 011°55'1111.2
2014-Aug-28 21:32N 56°33' E 012°02'1111.1
2014-Aug-28 20:33N 56°24' E 012°12'1111.1
2014-Aug-28 19:33N 56°15' E 012°24'1212.1
2014-Aug-28 18:33N 56°05' E 012°36'1212.0
2014-Aug-28 17:33N 55°54' E 012°45'1211.9
2014-Aug-28 16:33N 55°42' E 012°41'1212.0
2014-Aug-28 15:33N 55°30' E 012°43'1111.3
2014-Aug-28 14:33N 55°19' E 012°41'1311.8
2014-Aug-28 13:27N 55°06' E 012°40'3211.1
2014-Aug-28 10:33N 54°37' E 012°18'1111.2
2014-Aug-28 09:33N 54°26' E 012°12'1310.5
2014-Aug-28 08:17N 54°13' E 012°05'4 3.8
2014-Aug-28 07:06N 54°09' E 012°07'0 0.0
2014-Aug-28 06:30N 54°09' E 012°07'0 0.0
2014-Aug-28 04:27N 54°09' E 012°07'0 0.0
2014-Aug-28 03:30N 54°09' E 012°07'0 0.0
2014-Aug-28 02:18N 54°09' E 012°07'0 0.0
2014-Aug-28 01:33N 54°09' E 012°07'0 0.0
2014-Aug-28 00:27N 54°09' E 012°07'0 0.0
2014-Aug-27 23:18N 54°09' E 012°07'0 0.0
2014-Aug-27 22:12N 54°09' E 012°07'0 0.0
2014-Aug-27 21:33N 54°09' E 012°07'0 0.0
2014-Aug-27 20:30N 54°09' E 012°07'0 0.0
2014-Aug-27 19:33N 54°09' E 012°07'0 0.0
2014-Aug-27 18:18N 54°09' E 012°07'0 0.0
2014-Aug-27 17:33N 54°09' E 012°07'1 0.6
2014-Aug-27 16:33N 54°10' E 012°07'9 9.5
2014-Aug-27 15:33N 54°18' E 012°01'1212.4
2014-Aug-27 14:34N 54°29' E 012°12'4112.2
2014-Aug-27 11:10N 55°07' E 012°38'812.4
2014-Aug-27 10:33N 55°15' E 012°37'1212.3
2014-Aug-27 09:34N 55°27' E 012°39'1211.5
2014-Aug-27 08:33N 55°39' E 012°41'1212.1
2014-Aug-27 07:34N 55°51' E 012°40'1212.0
2014-Aug-27 06:34N 56°03' E 012°38'1111.3
2014-Aug-27 05:34N 56°10' E 012°23'1212.2
2014-Aug-27 04:34N 56°17' E 012°05'1312.3
2014-Aug-27 03:32N 56°29' E 011°59'1212.7
2014-Aug-27 02:33N 56°41' E 011°54'1312.9
2014-Aug-27 01:33N 56°54' E 011°47'1512.6
2014-Aug-27 00:20N 57°08' E 011°37'1012.5
2014-Aug-26 23:33N 57°18' E 011°31'1212.6
2014-Aug-26 22:34N 57°29' E 011°24'1212.2
2014-Aug-26 21:33N 57°41' E 011°18'1312.6
2014-Aug-26 20:34N 57°53' E 011°12'1312.6
2014-Aug-26 19:33N 58°06' E 011°06'5112.1
2014-Aug-26 15:20N 58°56' E 010°46'7 8.6
2014-Aug-26 14:33N 59°01' E 010°53'10 9.7
2014-Aug-26 13:34N 59°11' E 010°57'0 0.2
2014-Aug-26 12:33N 59°11' E 010°57'0 0.0
2014-Aug-26 11:33N 59°11' E 010°57'0 0.0
2014-Aug-26 10:33N 59°11' E 010°57'0 0.0
2014-Aug-26 09:33N 59°11' E 010°57'0 0.0
2014-Aug-26 08:30N 59°11' E 010°57'0 0.0
2014-Aug-26 07:33N 59°11' E 010°57'1 0.7
2014-Aug-26 06:33N 59°10' E 010°57'6 6.3
2014-Aug-26 05:33N 59°11' E 010°45'1211.7
2014-Aug-26 04:33N 59°22' E 010°36'5 4.4
2014-Aug-26 03:30N 59°25' E 010°30'0 0.0
2014-Aug-26 02:33N 59°25' E 010°30'0 0.0
2014-Aug-26 01:21N 59°25' E 010°30'0 0.0
2014-Aug-26 00:30N 59°25' E 010°30'0 0.0
2014-Aug-25 23:21N 59°25' E 010°30'0 0.0
2014-Aug-25 22:30N 59°25' E 010°30'0 0.0
2014-Aug-25 21:33N 59°25' E 010°30'0 0.0
2014-Aug-25 20:33N 59°25' E 010°30'0 0.0
2014-Aug-25 19:33N 59°25' E 010°30'0 0.0
2014-Aug-25 18:15N 59°25' E 010°30'0 0.0
2014-Aug-25 17:24N 59°25' E 010°30'0 0.0
2014-Aug-25 15:30N 59°25' E 010°30'0 0.0
2014-Aug-25 13:27N 59°25' E 010°30'0 0.0
2014-Aug-25 12:33N 59°25' E 010°30'0 0.0
2014-Aug-25 11:30N 59°25' E 010°30'0 0.0
2014-Aug-25 10:33N 59°25' E 010°30'0 0.0
2014-Aug-25 09:27N 59°25' E 010°30'0 0.0
2014-Aug-25 05:15N 59°25' E 010°30'0 0.0
2014-Aug-25 03:21N 59°25' E 010°30'0 0.0
2014-Aug-25 02:33N 59°25' E 010°30'0 0.0
2014-Aug-24 23:15N 59°25' E 010°30'0 0.5
2014-Aug-24 22:33N 59°25' E 010°30'1010.1
2014-Aug-24 21:34N 59°15' E 010°35'1010.2
2014-Aug-24 20:33N 59°05' E 010°34'8 8.0
2014-Aug-24 19:34N 58°58' E 010°26'63 9.0
2014-Aug-24 12:33N 58°18' E 008°52'9 8.7
2014-Aug-24 11:34N 58°12' E 008°40'9 8.8
2014-Aug-24 10:34N 58°06' E 008°29'87 8.6
2014-Aug-24 00:25N 56°49' E 007°14'186 8.7
2014-Aug-23 03:08N 53°60' E 004°56'9 8.6
2014-Aug-23 02:07N 53°51' E 004°54'23 8.4
2014-Aug-22 23:21N 53°29' E 004°44'41 8.5
2014-Aug-22 18:34N 52°53' E 004°14'9 8.8
2014-Aug-22 17:33N 52°45' E 004°07'9 9.3
2014-Aug-22 16:34N 52°37' E 004°00'10 9.5
2014-Aug-22 15:31N 52°27' E 003°55'10 9.6
2014-Aug-22 14:31N 52°18' E 003°52'9 9.4
2014-Aug-22 13:33N 52°09' E 003°55'9 9.3
2014-Aug-22 12:34N 52°00' E 004°02'  
Track history (hours):
 
Tides and Currents Weather Stations Pressure Air Temp Water Temp Dewpoint Dewpoint Depression Visibility Wind Speed Wind Dir Waves Ship Positions

Wilson Lahn

Last reported at 2014-Sep-01 12:10 UTC. Time now 2014-Sep-02 21:24 UTC.
Position N 64°34' E 009°42'.

Length 83 m; draft 3.7 m.

Type: Cargo ship. MMSI: 314259000.

Date/timePositionNaut miles runAvg speedWind from/ knotsBaromVisibWave heightAir tempDewpointWater temp
2014-Sep-01 12:10N 64°34' E 009°42'911.5
2014-Sep-01 11:23N 64°28' E 009°28'  
2014-Aug-29 23:21N 59°05' E 005°00'1012.6
2014-Aug-29 22:33N 58°56' E 005°09'3812.8
2014-Aug-29 19:33N 58°23' E 005°48'1312.8
2014-Aug-29 18:33N 58°15' E 006°07'1312.5
2014-Aug-29 17:33N 58°06' E 006°24'12511.3
2014-Aug-29 06:31N 57°49' E 010°18'1111.6
2014-Aug-29 05:33N 57°48' E 010°38'1110.3
2014-Aug-29 04:29N 57°43' E 010°56'1111.5
2014-Aug-29 03:33N 57°35' E 011°11'1211.6
2014-Aug-29 02:33N 57°27' E 011°26'1211.8
2014-Aug-29 01:34N 57°16' E 011°34'1311.8
2014-Aug-29 00:30N 57°04' E 011°41'1111.3
2014-Aug-28 23:33N 56°54' E 011°48'1110.9
2014-Aug-28 22:34N 56°44' E 011°55'1111.2
2014-Aug-28 21:32N 56°33' E 012°02'1111.1
2014-Aug-28 20:33N 56°24' E 012°12'1111.1
2014-Aug-28 19:33N 56°15' E 012°24'1212.1
2014-Aug-28 18:33N 56°05' E 012°36'1212.0
2014-Aug-28 17:33N 55°54' E 012°45'1211.9
2014-Aug-28 16:33N 55°42' E 012°41'1212.0
2014-Aug-28 15:33N 55°30' E 012°43'1111.3
2014-Aug-28 14:33N 55°19' E 012°41'1311.8
2014-Aug-28 13:27N 55°06' E 012°40'3211.1
2014-Aug-28 10:33N 54°37' E 012°18'1111.2
2014-Aug-28 09:33N 54°26' E 012°12'1310.5
2014-Aug-28 08:17N 54°13' E 012°05'4 3.8
2014-Aug-28 07:06N 54°09' E 012°07'0 0.0
2014-Aug-28 06:30N 54°09' E 012°07'0 0.0
2014-Aug-28 04:27N 54°09' E 012°07'0 0.0
2014-Aug-28 03:30N 54°09' E 012°07'0 0.0
2014-Aug-28 02:18N 54°09' E 012°07'0 0.0
2014-Aug-28 01:33N 54°09' E 012°07'0 0.0
2014-Aug-28 00:27N 54°09' E 012°07'0 0.0
2014-Aug-27 23:18N 54°09' E 012°07'0 0.0
2014-Aug-27 22:12N 54°09' E 012°07'0 0.0
2014-Aug-27 21:33N 54°09' E 012°07'0 0.0
2014-Aug-27 20:30N 54°09' E 012°07'0 0.0
2014-Aug-27 19:33N 54°09' E 012°07'0 0.0
2014-Aug-27 18:18N 54°09' E 012°07'0 0.0
2014-Aug-27 17:33N 54°09' E 012°07'1 0.6
2014-Aug-27 16:33N 54°10' E 012°07'9 9.5
2014-Aug-27 15:33N 54°18' E 012°01'1212.4
2014-Aug-27 14:34N 54°29' E 012°12'4112.2
2014-Aug-27 11:10N 55°07' E 012°38'812.4
2014-Aug-27 10:33N 55°15' E 012°37'1212.3
2014-Aug-27 09:34N 55°27' E 012°39'1211.5
2014-Aug-27 08:33N 55°39' E 012°41'1212.1
2014-Aug-27 07:34N 55°51' E 012°40'1212.0
2014-Aug-27 06:34N 56°03' E 012°38'1111.3
2014-Aug-27 05:34N 56°10' E 012°23'1212.2
2014-Aug-27 04:34N 56°17' E 012°05'1312.3
2014-Aug-27 03:32N 56°29' E 011°59'1212.7
2014-Aug-27 02:33N 56°41' E 011°54'1312.9
2014-Aug-27 01:33N 56°54' E 011°47'1512.6
2014-Aug-27 00:20N 57°08' E 011°37'1012.5
2014-Aug-26 23:33N 57°18' E 011°31'1212.6
2014-Aug-26 22:34N 57°29' E 011°24'1212.2
2014-Aug-26 21:33N 57°41' E 011°18'1312.6
2014-Aug-26 20:34N 57°53' E 011°12'1312.6
2014-Aug-26 19:33N 58°06' E 011°06'5112.1
2014-Aug-26 15:20N 58°56' E 010°46'7 8.6
2014-Aug-26 14:33N 59°01' E 010°53'10 9.7
2014-Aug-26 13:34N 59°11' E 010°57'0 0.2
2014-Aug-26 12:33N 59°11' E 010°57'0 0.0
2014-Aug-26 11:33N 59°11' E 010°57'0 0.0
2014-Aug-26 10:33N 59°11' E 010°57'0 0.0
2014-Aug-26 09:33N 59°11' E 010°57'0 0.0
2014-Aug-26 08:30N 59°11' E 010°57'0 0.0
2014-Aug-26 07:33N 59°11' E 010°57'1 0.7
2014-Aug-26 06:33N 59°10' E 010°57'6 6.3
2014-Aug-26 05:33N 59°11' E 010°45'1211.7
2014-Aug-26 04:33N 59°22' E 010°36'5 4.4
2014-Aug-26 03:30N 59°25' E 010°30'0 0.0
2014-Aug-26 02:33N 59°25' E 010°30'0 0.0
2014-Aug-26 01:21N 59°25' E 010°30'0 0.0
2014-Aug-26 00:30N 59°25' E 010°30'0 0.0
2014-Aug-25 23:21N 59°25' E 010°30'0 0.0
2014-Aug-25 22:30N 59°25' E 010°30'0 0.0
2014-Aug-25 21:33N 59°25' E 010°30'0 0.0
2014-Aug-25 20:33N 59°25' E 010°30'0 0.0
2014-Aug-25 19:33N 59°25' E 010°30'0 0.0
2014-Aug-25 18:15N 59°25' E 010°30'0 0.0
2014-Aug-25 17:24N 59°25' E 010°30'0 0.0
2014-Aug-25 15:30N 59°25' E 010°30'0 0.0
2014-Aug-25 13:27N 59°25' E 010°30'0 0.0
2014-Aug-25 12:33N 59°25' E 010°30'0 0.0
2014-Aug-25 11:30N 59°25' E 010°30'0 0.0
2014-Aug-25 10:33N 59°25' E 010°30'0 0.0
2014-Aug-25 09:27N 59°25' E 010°30'0 0.0
2014-Aug-25 05:15N 59°25' E 010°30'0 0.0
2014-Aug-25 03:21N 59°25' E 010°30'0 0.0
2014-Aug-25 02:33N 59°25' E 010°30'0 0.0
2014-Aug-24 23:15N 59°25' E 010°30'0 0.5
2014-Aug-24 22:33N 59°25' E 010°30'1010.1
2014-Aug-24 21:34N 59°15' E 010°35'1010.2
2014-Aug-24 20:33N 59°05' E 010°34'8 8.0
2014-Aug-24 19:34N 58°58' E 010°26'63 9.0
2014-Aug-24 12:33N 58°18' E 008°52'9 8.7
2014-Aug-24 11:34N 58°12' E 008°40'9 8.8
2014-Aug-24 10:34N 58°06' E 008°29'87 8.6
2014-Aug-24 00:25N 56°49' E 007°14'186 8.7
2014-Aug-23 03:08N 53°60' E 004°56'9 8.6
2014-Aug-23 02:07N 53°51' E 004°54'23 8.4
2014-Aug-22 23:21N 53°29' E 004°44'41 8.5
2014-Aug-22 18:34N 52°53' E 004°14'9 8.8
2014-Aug-22 17:33N 52°45' E 004°07'9 9.3
2014-Aug-22 16:34N 52°37' E 004°00'10 9.5
2014-Aug-22 15:31N 52°27' E 003°55'10 9.6
2014-Aug-22 14:31N 52°18' E 003°52'9 9.4
2014-Aug-22 13:33N 52°09' E 003°55'9 9.3
2014-Aug-22 12:34N 52°00' E 004°02'  

Dump ship's entire track history